createdAt,value
2019-03-26T00:00:23.601Z,4.75
2019-03-26T00:01:23.512Z,4.81
2019-03-26T00:02:23.520Z,4.81
2019-03-26T00:03:23.804Z,4.87
2019-03-26T00:04:23.815Z,4.87
2019-03-26T00:05:23.593Z,4.87
2019-03-26T00:06:23.509Z,4.94
2019-03-26T00:07:23.530Z,4.94
2019-03-26T00:08:23.531Z,4.87
2019-03-26T00:09:24.412Z,4.94
2019-03-26T00:10:23.520Z,4.87
2019-03-26T00:11:23.504Z,4.94
2019-03-26T00:12:23.565Z,4.94
2019-03-26T00:13:23.489Z,5
2019-03-26T00:14:23.555Z,5
2019-03-26T00:15:24.359Z,5
2019-03-26T00:16:23.487Z,5
2019-03-26T00:17:23.462Z,5
2019-03-26T00:18:23.494Z,5
2019-03-26T00:19:23.462Z,5
2019-03-26T00:20:23.736Z,5.06
2019-03-26T00:21:23.472Z,5.06
2019-03-26T00:22:23.539Z,5.06
2019-03-26T00:23:23.467Z,5.06
2019-03-26T00:24:23.543Z,5.06
2019-03-26T00:25:23.509Z,5.06
2019-03-26T00:26:23.474Z,5.06
2019-03-26T00:27:23.479Z,5
2019-03-26T00:28:23.501Z,5
2019-03-26T00:29:23.457Z,4.94
2019-03-26T00:30:26.154Z,4.94
2019-03-26T00:31:23.516Z,4.94
2019-03-26T00:32:24.081Z,4.94
2019-03-26T00:33:37.109Z,4.94
2019-03-26T00:34:23.488Z,4.94
2019-03-26T00:35:23.688Z,4.87
2019-03-26T00:36:23.502Z,4.87
2019-03-26T00:37:23.492Z,4.81
2019-03-26T00:38:23.440Z,4.81
2019-03-26T00:39:23.506Z,4.81
2019-03-26T00:40:23.445Z,4.81
2019-03-26T00:41:23.437Z,4.81
2019-03-26T00:42:23.440Z,4.75
2019-03-26T00:43:23.426Z,4.75
2019-03-26T00:44:23.475Z,4.75
2019-03-26T00:45:23.533Z,4.69
2019-03-26T00:46:23.467Z,4.69
2019-03-26T00:47:23.649Z,4.69
2019-03-26T00:48:23.425Z,4.69
2019-03-26T00:49:23.540Z,4.62
2019-03-26T00:50:24.320Z,4.69
2019-03-26T00:51:23.428Z,4.56
2019-03-26T00:52:23.439Z,4.56
2019-03-26T00:53:23.590Z,4.5
2019-03-26T00:54:23.456Z,4.44
2019-03-26T00:55:23.668Z,4.44
2019-03-26T00:56:23.483Z,4.31
2019-03-26T00:57:23.465Z,4.37
2019-03-26T00:58:23.450Z,4.37
2019-03-26T00:59:23.590Z,4.37
2019-03-26T01:00:23.529Z,4.37
2019-03-26T01:01:24.047Z,4.31
2019-03-26T01:02:23.452Z,4.31
2019-03-26T01:03:23.460Z,4.25
2019-03-26T01:04:33.690Z,4.19
2019-03-26T01:05:23.510Z,4.19
2019-03-26T01:06:23.433Z,4.12
2019-03-26T01:07:23.430Z,4.06
2019-03-26T01:08:23.422Z,4.06
2019-03-26T01:09:23.598Z,4.06
2019-03-26T01:10:23.942Z,4.06
2019-03-26T01:11:23.413Z,4.06
2019-03-26T01:12:23.466Z,4.06
2019-03-26T01:13:23.405Z,4.12
2019-03-26T01:14:23.427Z,4.12
2019-03-26T01:15:23.443Z,4.12
2019-03-26T01:16:24.269Z,4.12
2019-03-26T01:17:24.304Z,4.19
2019-03-26T01:18:23.495Z,4.12
2019-03-26T01:19:23.380Z,4.12
2019-03-26T01:20:23.400Z,4.19
2019-03-26T01:21:23.394Z,4.12
2019-03-26T01:22:23.482Z,4.19
2019-03-26T01:23:23.417Z,4.12
2019-03-26T01:24:23.434Z,4.12
2019-03-26T01:25:23.415Z,4.19
2019-03-26T01:26:23.390Z,4.19
2019-03-26T01:27:23.419Z,4.25
2019-03-26T01:28:23.405Z,4.25
2019-03-26T01:29:23.366Z,4.31
2019-03-26T01:30:23.929Z,4.31
2019-03-26T01:31:23.472Z,4.31
2019-03-26T01:32:23.388Z,4.37
2019-03-26T01:33:23.493Z,4.37
2019-03-26T01:34:23.440Z,4.44
2019-03-26T01:35:23.367Z,4.44
2019-03-26T01:36:23.377Z,4.44
2019-03-26T01:37:23.385Z,4.44
2019-03-26T01:38:23.352Z,4.44
2019-03-26T01:39:23.443Z,4.37
2019-03-26T01:40:24.719Z,4.37
2019-03-26T01:41:23.459Z,4.37
2019-03-26T01:42:23.387Z,4.31
2019-03-26T01:43:23.392Z,4.25
2019-03-26T01:44:23.374Z,4.25
2019-03-26T01:45:23.430Z,4.25
2019-03-26T01:46:23.428Z,4.25
2019-03-26T01:47:23.431Z,4.25
2019-03-26T01:48:23.382Z,4.25
2019-03-26T01:49:23.347Z,4.25
2019-03-26T01:50:23.341Z,4.19
2019-03-26T01:51:23.331Z,4.19
2019-03-26T01:52:24.582Z,4.12
2019-03-26T01:53:23.413Z,4.06
2019-03-26T01:54:23.401Z,4.06
2019-03-26T01:55:23.358Z,4.06
2019-03-26T01:56:23.353Z,4.06
2019-03-26T01:57:23.324Z,4.06
2019-03-26T01:58:23.371Z,4.12
2019-03-26T01:59:23.385Z,4.19
2019-03-26T02:00:24.220Z,4.19
2019-03-26T02:01:23.359Z,4.19
2019-03-26T02:02:23.334Z,4.12
2019-03-26T02:03:23.308Z,4.12
2019-03-26T02:04:23.353Z,4.12
2019-03-26T02:05:23.341Z,4.12
2019-03-26T02:06:23.343Z,4.06
2019-03-26T02:07:23.315Z,4
2019-03-26T02:08:23.322Z,3.94
2019-03-26T02:09:23.366Z,3.87
2019-03-26T02:10:23.299Z,3.87
2019-03-26T02:11:23.336Z,3.87
2019-03-26T02:12:23.319Z,3.87
2019-03-26T02:13:23.407Z,3.87
2019-03-26T02:14:23.353Z,3.87
2019-03-26T02:15:23.288Z,3.87
2019-03-26T02:16:23.368Z,3.87
2019-03-26T02:17:23.295Z,3.94
2019-03-26T02:18:23.284Z,3.94
2019-03-26T02:19:23.365Z,3.94
2019-03-26T02:20:23.315Z,3.94
2019-03-26T02:21:23.312Z,4
2019-03-26T02:22:23.324Z,3.94
2019-03-26T02:23:23.319Z,4
2019-03-26T02:24:23.332Z,4
2019-03-26T02:25:23.334Z,4
2019-03-26T02:26:23.373Z,4
2019-03-26T02:27:23.351Z,4.06
2019-03-26T02:28:24.199Z,4.06
2019-03-26T02:29:23.306Z,4.06
2019-03-26T02:30:23.350Z,4.12
2019-03-26T02:31:24.222Z,4.12
2019-03-26T02:32:23.365Z,4.12
2019-03-26T02:33:23.335Z,4.12
2019-03-26T02:34:23.362Z,4.19
2019-03-26T02:35:23.555Z,4.25
2019-03-26T02:36:23.337Z,4.19
2019-03-26T02:37:23.337Z,4.25
2019-03-26T02:38:24.178Z,4.25
2019-03-26T02:39:23.315Z,4.25
2019-03-26T02:40:23.551Z,4.31
2019-03-26T02:41:23.395Z,4.31
2019-03-26T02:42:23.312Z,4.37
2019-03-26T02:43:23.254Z,4.37
2019-03-26T02:44:23.279Z,4.37
2019-03-26T02:45:23.408Z,4.37
2019-03-26T02:46:23.342Z,4.44
2019-03-26T02:47:23.294Z,4.44
2019-03-26T02:48:23.294Z,4.44
2019-03-26T02:49:23.270Z,4.44
2019-03-26T02:50:23.608Z,4.44
2019-03-26T02:51:23.316Z,4.5
2019-03-26T02:52:23.299Z,4.44
2019-03-26T02:53:23.312Z,4.5
2019-03-26T02:54:23.493Z,4.5
2019-03-26T02:55:23.237Z,4.5
2019-03-26T02:56:23.420Z,4.56
2019-03-26T02:57:23.304Z,4.56
2019-03-26T02:58:23.304Z,4.56
2019-03-26T02:59:23.273Z,4.62
2019-03-26T03:00:23.294Z,4.56
2019-03-26T03:01:23.248Z,4.5
2019-03-26T03:02:23.359Z,4.5
2019-03-26T03:03:23.340Z,4.5
2019-03-26T03:04:23.262Z,4.5
2019-03-26T03:05:36.616Z,4.44
2019-03-26T03:06:23.270Z,4.44
2019-03-26T03:07:23.218Z,4.44
2019-03-26T03:08:24.141Z,4.44
2019-03-26T03:09:23.259Z,4.44
2019-03-26T03:10:23.199Z,4.44
2019-03-26T03:11:23.244Z,4.44
2019-03-26T03:12:23.354Z,4.44
2019-03-26T03:13:23.254Z,4.5
2019-03-26T03:14:23.250Z,4.5
2019-03-26T03:15:23.298Z,4.5
2019-03-26T03:16:23.320Z,4.5
2019-03-26T03:17:23.206Z,4.5
2019-03-26T03:18:23.382Z,4.5
2019-03-26T03:19:23.360Z,4.5
2019-03-26T03:20:23.271Z,4.5
2019-03-26T03:21:23.261Z,4.5
2019-03-26T03:22:23.240Z,4.5
2019-03-26T03:23:23.197Z,4.5
2019-03-26T03:24:24.115Z,4.56
2019-03-26T03:25:24.165Z,4.56
2019-03-26T03:26:23.434Z,4.5
2019-03-26T03:27:23.255Z,4.5
2019-03-26T03:28:23.255Z,4.5
2019-03-26T03:29:24.151Z,4.5
2019-03-26T03:30:23.329Z,4.5
2019-03-26T03:31:23.350Z,4.5
2019-03-26T03:32:23.230Z,4.5
2019-03-26T03:33:23.353Z,4.5
2019-03-26T03:34:23.287Z,4.44
2019-03-26T03:35:23.199Z,4.5
2019-03-26T03:36:23.218Z,4.44
2019-03-26T03:37:23.722Z,4.5
2019-03-26T03:38:23.236Z,4.5
2019-03-26T03:39:23.403Z,4.5
2019-03-26T03:40:24.174Z,4.5
2019-03-26T03:41:23.200Z,4.56
2019-03-26T03:42:23.226Z,4.56
2019-03-26T03:43:23.205Z,4.56
2019-03-26T03:44:23.233Z,4.56
2019-03-26T03:45:24.191Z,4.62
2019-03-26T03:46:23.305Z,4.62
2019-03-26T03:47:23.158Z,4.62
2019-03-26T03:48:24.432Z,4.62
2019-03-26T03:49:24.306Z,4.62
2019-03-26T03:50:23.223Z,4.62
2019-03-26T03:51:23.178Z,4.56
2019-03-26T03:52:23.162Z,4.62
2019-03-26T03:53:23.209Z,4.56
2019-03-26T03:54:23.168Z,4.56
2019-03-26T03:55:23.230Z,4.56
2019-03-26T03:56:23.189Z,4.56
2019-03-26T03:57:23.190Z,4.56
2019-03-26T03:58:23.255Z,4.5
2019-03-26T03:59:23.181Z,4.5
2019-03-26T04:00:23.388Z,4.5
2019-03-26T04:01:23.193Z,4.44
2019-03-26T04:02:23.204Z,4.44
2019-03-26T04:03:23.218Z,4.44
2019-03-26T04:04:23.153Z,4.37
2019-03-26T04:05:23.274Z,4.44
2019-03-26T04:06:23.260Z,4.44
2019-03-26T04:07:23.173Z,4.44
2019-03-26T04:08:23.239Z,4.37
2019-03-26T04:09:23.192Z,4.37
2019-03-26T04:10:23.249Z,4.37
2019-03-26T04:11:23.310Z,4.31
2019-03-26T04:12:23.256Z,4.37
2019-03-26T04:13:23.174Z,4.37
2019-03-26T04:14:23.189Z,4.31
2019-03-26T04:15:23.204Z,4.25
2019-03-26T04:16:23.367Z,4.19
2019-03-26T04:17:23.131Z,4.25
2019-03-26T04:18:23.137Z,4.19
2019-03-26T04:19:23.280Z,4.19
2019-03-26T04:20:23.157Z,4.12
2019-03-26T04:21:25.324Z,4.12
2019-03-26T04:22:23.429Z,4.12
2019-03-26T04:23:23.184Z,4.06
2019-03-26T04:24:24.034Z,4.06
2019-03-26T04:25:23.713Z,4.12
2019-03-26T04:26:23.205Z,4.06
2019-03-26T04:27:23.139Z,4.06
2019-03-26T04:28:23.207Z,4.06
2019-03-26T04:29:23.137Z,4.06
2019-03-26T04:30:23.120Z,4.12
2019-03-26T04:31:23.194Z,4.12
2019-03-26T04:32:23.161Z,4.12
2019-03-26T04:33:23.176Z,4.12
2019-03-26T04:34:23.150Z,4.12
2019-03-26T04:35:23.171Z,4.12
2019-03-26T04:36:26.966Z,4.12
2019-03-26T04:37:23.107Z,4.12
2019-03-26T04:38:23.104Z,4.06
2019-03-26T04:39:23.151Z,4.12
2019-03-26T04:40:25.082Z,4.06
2019-03-26T04:41:23.176Z,4.06
2019-03-26T04:42:23.994Z,4.06
2019-03-26T04:43:23.108Z,4.12
2019-03-26T04:44:23.477Z,4.06
2019-03-26T04:45:23.095Z,4.06
2019-03-26T04:46:23.101Z,4.12
2019-03-26T04:47:23.071Z,4.06
2019-03-26T04:48:23.407Z,4.06
2019-03-26T04:49:23.068Z,4.06
2019-03-26T04:50:23.085Z,4.06
2019-03-26T04:51:23.083Z,4.06
2019-03-26T04:52:23.061Z,4.06
2019-03-26T04:53:23.123Z,4.06
2019-03-26T04:54:23.151Z,4.06
2019-03-26T04:55:23.160Z,4
2019-03-26T04:56:23.141Z,4.06
2019-03-26T04:57:23.282Z,4
2019-03-26T04:58:23.099Z,4
2019-03-26T04:59:23.107Z,4
2019-03-26T05:00:23.100Z,4
2019-03-26T05:01:23.087Z,4
2019-03-26T05:02:23.051Z,3.94
2019-03-26T05:03:23.101Z,4
2019-03-26T05:04:24.447Z,3.94
2019-03-26T05:05:23.107Z,3.94
2019-03-26T05:06:23.125Z,3.94
2019-03-26T05:07:23.165Z,3.94
2019-03-26T05:08:23.323Z,3.94
2019-03-26T05:09:23.054Z,3.81
2019-03-26T05:10:23.030Z,3.81
2019-03-26T05:11:23.064Z,3.81
2019-03-26T05:12:23.112Z,3.81
2019-03-26T05:13:23.351Z,3.87
2019-03-26T05:14:23.052Z,3.87
2019-03-26T05:15:23.068Z,3.81
2019-03-26T05:16:23.081Z,3.75
2019-03-26T05:17:23.043Z,3.75
2019-03-26T05:18:23.086Z,3.75
2019-03-26T05:19:23.077Z,3.62
2019-03-26T05:20:23.091Z,3.69
2019-03-26T05:21:23.164Z,3.62
2019-03-26T05:22:24.940Z,3.62
2019-03-26T05:23:23.060Z,3.62
2019-03-26T05:24:23.040Z,3.62
2019-03-26T05:25:24.101Z,3.69
2019-03-26T05:26:23.290Z,3.69
2019-03-26T05:27:23.466Z,3.69
2019-03-26T05:28:23.071Z,3.69
2019-03-26T05:29:23.021Z,3.69
2019-03-26T05:30:23.061Z,3.69
2019-03-26T05:31:23.074Z,3.69
2019-03-26T05:32:23.044Z,3.69
2019-03-26T05:33:23.075Z,3.69
2019-03-26T05:34:22.997Z,3.69
2019-03-26T05:35:24.214Z,3.62
2019-03-26T05:36:22.983Z,3.62
2019-03-26T05:37:23.106Z,3.69
2019-03-26T05:38:23.005Z,3.69
2019-03-26T05:39:23.034Z,3.69
2019-03-26T05:40:23.056Z,3.69
2019-03-26T05:41:23.001Z,3.69
2019-03-26T05:42:23.090Z,3.75
2019-03-26T05:43:23.909Z,3.69
2019-03-26T05:44:22.986Z,3.69
2019-03-26T05:45:23.074Z,3.69
2019-03-26T05:46:22.992Z,3.69
2019-03-26T05:47:22.979Z,3.69
2019-03-26T05:48:23.247Z,3.69
2019-03-26T05:49:23.934Z,3.69
2019-03-26T05:50:22.981Z,3.75
2019-03-26T05:51:23.032Z,3.75
2019-03-26T05:52:22.982Z,3.75
2019-03-26T05:53:23.026Z,3.75
2019-03-26T05:54:22.991Z,3.81
2019-03-26T05:55:23.014Z,3.75
2019-03-26T05:56:23.001Z,3.81
2019-03-26T05:57:23.014Z,3.81
2019-03-26T05:58:23.114Z,3.81
2019-03-26T05:59:22.967Z,3.87
2019-03-26T06:00:23.064Z,3.87
2019-03-26T06:01:23.024Z,3.87
2019-03-26T06:02:22.959Z,3.87
2019-03-26T06:03:22.987Z,3.87
2019-03-26T06:04:24.201Z,3.94
2019-03-26T06:05:23.050Z,3.94
2019-03-26T06:06:22.974Z,3.94
2019-03-26T06:07:22.941Z,3.94
2019-03-26T06:08:23.277Z,3.94
2019-03-26T06:09:23.853Z,3.94
2019-03-26T06:10:22.983Z,3.87
2019-03-26T06:11:23.164Z,3.87
2019-03-26T06:12:22.979Z,3.87
2019-03-26T06:13:22.997Z,3.87
2019-03-26T06:14:23.109Z,3.94
2019-03-26T06:15:22.966Z,3.94
2019-03-26T06:16:23.032Z,3.94
2019-03-26T06:17:23.009Z,4
2019-03-26T06:18:22.940Z,4
2019-03-26T06:19:22.965Z,4.06
2019-03-26T06:20:22.982Z,4.06
2019-03-26T06:21:22.988Z,4.06
2019-03-26T06:22:23.363Z,4.12
2019-03-26T06:23:23.025Z,4.12
2019-03-26T06:24:23.048Z,4.06
2019-03-26T06:25:22.994Z,4.12
2019-03-26T06:26:22.994Z,4.12
2019-03-26T06:27:23.008Z,4.19
2019-03-26T06:28:22.928Z,4.19
2019-03-26T06:29:23.053Z,4.19
2019-03-26T06:30:23.051Z,4.19
2019-03-26T06:31:22.949Z,4.25
2019-03-26T06:32:23.000Z,4.19
2019-03-26T06:33:23.043Z,4.19
2019-03-26T06:34:23.022Z,4.25
2019-03-26T06:35:22.945Z,4.25
2019-03-26T06:36:24.081Z,4.25
2019-03-26T06:37:22.953Z,4.25
2019-03-26T06:38:23.896Z,4.31
2019-03-26T06:39:22.977Z,4.31
2019-03-26T06:40:22.953Z,4.37
2019-03-26T06:41:22.923Z,4.44
2019-03-26T06:42:22.999Z,4.5
2019-03-26T06:43:23.149Z,4.5
2019-03-26T06:44:22.929Z,4.5
2019-03-26T06:45:22.917Z,4.5
2019-03-26T06:46:22.971Z,4.56
2019-03-26T06:47:22.928Z,4.56
2019-03-26T06:48:22.899Z,4.56
2019-03-26T06:49:22.904Z,4.56
2019-03-26T06:50:22.945Z,4.56
2019-03-26T06:51:22.911Z,4.62
2019-03-26T06:52:22.896Z,4.62
2019-03-26T06:53:22.903Z,4.62
2019-03-26T06:54:23.035Z,4.69
2019-03-26T06:55:22.937Z,4.69
2019-03-26T06:56:22.935Z,4.75
2019-03-26T06:57:36.320Z,4.75
2019-03-26T06:58:22.987Z,4.75
2019-03-26T06:59:22.931Z,4.75
2019-03-26T07:00:22.916Z,4.75
2019-03-26T07:01:22.916Z,4.81
2019-03-26T07:02:22.895Z,4.81
2019-03-26T07:03:22.907Z,4.81
2019-03-26T07:04:22.889Z,4.87
2019-03-26T07:05:22.955Z,4.87
2019-03-26T07:06:22.986Z,4.87
2019-03-26T07:07:32.306Z,4.87
2019-03-26T07:08:22.942Z,4.94
2019-03-26T07:09:22.932Z,4.94
2019-03-26T07:10:23.006Z,5
2019-03-26T07:11:22.842Z,5
2019-03-26T07:12:22.979Z,5.06
2019-03-26T07:13:23.173Z,5.12
2019-03-26T07:14:22.869Z,5.19
2019-03-26T07:15:23.024Z,5.19
2019-03-26T07:16:22.930Z,5.25
2019-03-26T07:17:22.867Z,5.19
2019-03-26T07:18:22.862Z,5.25
2019-03-26T07:19:22.865Z,5.19
2019-03-26T07:20:22.868Z,5.25
2019-03-26T07:21:23.437Z,5.25
2019-03-26T07:22:22.907Z,5.25
2019-03-26T07:23:22.855Z,5.31
2019-03-26T07:24:22.849Z,5.37
2019-03-26T07:25:22.813Z,5.31
2019-03-26T07:26:22.815Z,5.31
2019-03-26T07:27:22.844Z,5.37
2019-03-26T07:28:22.835Z,5.37
2019-03-26T07:29:22.855Z,5.44
2019-03-26T07:30:22.877Z,5.44
2019-03-26T07:31:22.885Z,5.44
2019-03-26T07:32:22.817Z,5.44
2019-03-26T07:33:22.859Z,5.44
2019-03-26T07:34:22.832Z,5.44
2019-03-26T07:35:22.973Z,5.44
2019-03-26T07:36:25.158Z,5.5
2019-03-26T07:37:22.883Z,5.5
2019-03-26T07:38:22.817Z,5.44
2019-03-26T07:39:22.809Z,5.44
2019-03-26T07:40:22.813Z,5.44
2019-03-26T07:41:22.855Z,5.5
2019-03-26T07:42:22.809Z,5.44
2019-03-26T07:43:22.814Z,5.5
2019-03-26T07:44:22.867Z,5.5
2019-03-26T07:45:22.811Z,5.56
2019-03-26T07:46:22.882Z,5.56
2019-03-26T07:47:22.846Z,5.56
2019-03-26T07:48:22.809Z,5.5
2019-03-26T07:49:22.821Z,5.44
2019-03-26T07:50:22.815Z,5.5
2019-03-26T07:51:22.828Z,5.5
2019-03-26T07:52:22.825Z,5.5
2019-03-26T07:53:22.851Z,5.56
2019-03-26T07:54:22.913Z,5.56
2019-03-26T07:55:22.870Z,5.56
2019-03-26T07:56:22.808Z,5.56
2019-03-26T07:57:22.848Z,5.62
2019-03-26T07:58:22.986Z,5.56
2019-03-26T07:59:22.850Z,5.62
2019-03-26T08:00:22.875Z,5.69
2019-03-26T08:01:22.776Z,5.62
2019-03-26T08:02:22.793Z,5.69
2019-03-26T08:03:22.858Z,5.75
2019-03-26T08:04:23.117Z,5.69
2019-03-26T08:05:31.668Z,5.69
2019-03-26T08:06:22.756Z,5.75
2019-03-26T08:07:22.762Z,5.69
2019-03-26T08:08:22.771Z,5.81
2019-03-26T08:09:23.746Z,5.75
2019-03-26T08:10:22.801Z,5.75
2019-03-26T08:11:23.039Z,5.75
2019-03-26T08:12:22.778Z,5.75
2019-03-26T08:13:23.078Z,5.81
2019-03-26T08:14:23.060Z,5.81
2019-03-26T08:15:22.929Z,5.87
2019-03-26T08:16:23.190Z,5.87
2019-03-26T08:17:22.995Z,5.87
2019-03-26T08:18:22.807Z,5.87
2019-03-26T08:19:22.748Z,5.81
2019-03-26T08:20:23.082Z,5.94
2019-03-26T08:21:25.122Z,5.87
2019-03-26T08:22:22.837Z,6
2019-03-26T08:23:22.891Z,6
2019-03-26T08:24:22.773Z,6.06
2019-03-26T08:25:22.843Z,6.12
2019-03-26T08:26:22.740Z,6.12
2019-03-26T08:27:22.731Z,6.25
2019-03-26T08:28:22.734Z,6.31
2019-03-26T08:29:22.765Z,6.31
2019-03-26T08:30:22.990Z,6.31
2019-03-26T08:31:22.783Z,6.37
2019-03-26T08:32:22.786Z,6.44
2019-03-26T08:33:23.732Z,6.5
2019-03-26T08:34:22.781Z,6.5
2019-03-26T08:35:22.801Z,6.5
2019-03-26T08:36:22.760Z,6.5
2019-03-26T08:37:22.784Z,6.62
2019-03-26T08:38:22.750Z,6.69
2019-03-26T08:39:22.749Z,6.75
2019-03-26T08:40:23.794Z,6.75
2019-03-26T08:41:22.802Z,6.75
2019-03-26T08:42:23.023Z,6.81
2019-03-26T08:43:22.746Z,6.81
2019-03-26T08:44:22.752Z,6.81
2019-03-26T08:45:22.805Z,6.81
2019-03-26T08:46:22.718Z,6.81
2019-03-26T08:47:22.738Z,6.81
2019-03-26T08:48:22.961Z,6.81
2019-03-26T08:49:22.739Z,6.81
2019-03-26T08:50:22.696Z,6.81
2019-03-26T08:51:22.771Z,6.87
2019-03-26T08:52:22.760Z,6.87
2019-03-26T08:53:22.782Z,6.87
2019-03-26T08:54:22.770Z,6.87
2019-03-26T08:55:22.723Z,6.94
2019-03-26T08:56:22.730Z,6.87
2019-03-26T08:57:22.787Z,6.94
2019-03-26T08:58:22.746Z,7
2019-03-26T08:59:22.750Z,7
2019-03-26T09:00:22.694Z,7
2019-03-26T09:01:22.707Z,7
2019-03-26T09:02:22.712Z,7.06
2019-03-26T09:03:22.783Z,7.06
2019-03-26T09:04:23.050Z,7.06
2019-03-26T09:05:22.773Z,7.06
2019-03-26T09:06:22.730Z,7.06
2019-03-26T09:07:22.774Z,7.06
2019-03-26T09:08:26.178Z,7.12
2019-03-26T09:09:22.781Z,7.12
2019-03-26T09:10:22.710Z,7.12
2019-03-26T09:11:22.694Z,7.19
2019-03-26T09:12:22.671Z,7.25
2019-03-26T09:13:22.705Z,7.25
2019-03-26T09:14:22.781Z,7.31
2019-03-26T09:15:22.690Z,7.31
2019-03-26T09:16:22.678Z,7.37
2019-03-26T09:17:22.732Z,7.44
2019-03-26T09:18:22.697Z,7.44
2019-03-26T09:19:22.707Z,7.44
2019-03-26T09:20:22.860Z,7.44
2019-03-26T09:21:22.681Z,7.37
2019-03-26T09:22:22.688Z,7.44
2019-03-26T09:23:22.678Z,7.5
2019-03-26T09:24:22.674Z,7.5
2019-03-26T09:25:22.857Z,7.5
2019-03-26T09:26:23.097Z,7.44
2019-03-26T09:27:22.651Z,7.44
2019-03-26T09:28:22.667Z,7.37
2019-03-26T09:29:22.674Z,7.37
2019-03-26T09:30:22.755Z,7.56
2019-03-26T09:31:22.671Z,7.5
2019-03-26T09:32:22.924Z,7.56
2019-03-26T09:33:22.676Z,7.56
2019-03-26T09:34:22.680Z,7.62
2019-03-26T09:35:22.658Z,7.62
2019-03-26T09:36:22.714Z,7.56
2019-03-26T09:37:22.720Z,7.62
2019-03-26T09:38:22.654Z,7.56
2019-03-26T09:39:22.661Z,7.62
2019-03-26T09:40:22.672Z,7.62
2019-03-26T09:41:22.665Z,7.56
2019-03-26T09:42:22.639Z,7.56
2019-03-26T09:43:22.721Z,7.56
2019-03-26T09:44:22.664Z,7.62
2019-03-26T09:45:22.675Z,7.69
2019-03-26T09:46:22.693Z,7.69
2019-03-26T09:47:22.859Z,7.62
2019-03-26T09:48:22.657Z,7.62
2019-03-26T09:49:22.659Z,7.69
2019-03-26T09:50:22.667Z,7.75
2019-03-26T09:51:22.701Z,7.81
2019-03-26T09:52:22.741Z,7.87
2019-03-26T09:53:22.701Z,7.94
2019-03-26T09:54:22.655Z,8
2019-03-26T09:55:22.701Z,8.06
2019-03-26T09:56:32.364Z,7.87
2019-03-26T09:57:22.640Z,7.81
2019-03-26T09:58:22.635Z,7.87
2019-03-26T09:59:22.646Z,7.81
2019-03-26T10:00:22.769Z,7.94
2019-03-26T10:01:22.681Z,7.94
2019-03-26T10:02:22.747Z,7.94
2019-03-26T10:03:22.665Z,8
2019-03-26T10:04:22.665Z,8
2019-03-26T10:05:22.725Z,8
2019-03-26T10:06:24.517Z,8
2019-03-26T10:07:22.636Z,7.94
2019-03-26T10:08:22.852Z,7.94
2019-03-26T10:09:22.772Z,7.87
2019-03-26T10:10:22.638Z,7.87
2019-03-26T10:11:22.641Z,7.81
2019-03-26T10:12:22.651Z,7.81
2019-03-26T10:13:22.653Z,7.81
2019-03-26T10:14:22.592Z,7.81
2019-03-26T10:15:22.599Z,7.87
2019-03-26T10:16:22.619Z,7.87
2019-03-26T10:17:22.616Z,7.81
2019-03-26T10:18:22.611Z,7.81
2019-03-26T10:19:22.627Z,7.75
2019-03-26T10:20:22.651Z,7.75
2019-03-26T10:21:22.676Z,7.75
2019-03-26T10:22:23.510Z,7.75
2019-03-26T10:23:23.103Z,7.75
2019-03-26T10:24:22.569Z,7.62
2019-03-26T10:25:22.663Z,7.69
2019-03-26T10:27:22.607Z,7.69
2019-03-26T10:28:22.657Z,7.62
2019-03-26T10:29:31.523Z,7.62
2019-03-26T10:30:25.123Z,7.69
2019-03-26T10:31:22.671Z,7.69
2019-03-26T10:32:22.632Z,7.62
2019-03-26T10:33:22.592Z,7.62
2019-03-26T10:34:22.586Z,7.56
2019-03-26T10:35:22.577Z,7.62
2019-03-26T10:36:22.600Z,7.62
2019-03-26T10:37:22.417Z,7.62
2019-03-26T10:38:22.568Z,7.62
2019-03-26T10:39:22.598Z,7.62
2019-03-26T10:40:22.817Z,7.62
2019-03-26T10:41:23.176Z,7.69
2019-03-26T10:42:22.664Z,7.56
2019-03-26T10:43:22.565Z,7.56
2019-03-26T10:45:22.568Z,7.56
2019-03-26T10:46:22.574Z,7.56
2019-03-26T10:47:22.701Z,7.56
2019-03-26T10:48:22.596Z,7.56
2019-03-26T10:49:22.586Z,7.56
2019-03-26T10:50:22.542Z,7.56
2019-03-26T10:51:22.577Z,7.5
2019-03-26T10:52:22.557Z,7.5
2019-03-26T10:53:22.593Z,7.5
2019-03-26T10:54:22.620Z,7.5
2019-03-26T10:55:22.559Z,7.5
2019-03-26T10:56:22.696Z,7.44
2019-03-26T10:57:22.598Z,7.44
2019-03-26T10:58:22.526Z,7.5
2019-03-26T10:59:22.535Z,7.44
2019-03-26T11:00:22.559Z,7.44
2019-03-26T11:01:22.610Z,7.44
2019-03-26T11:02:22.755Z,7.37
2019-03-26T11:03:22.627Z,7.44
2019-03-26T11:04:22.718Z,7.37
2019-03-26T11:05:22.748Z,7.37
2019-03-26T11:06:22.864Z,7.44
2019-03-26T11:07:22.559Z,7.37
2019-03-26T11:08:22.527Z,7.44
2019-03-26T11:09:27.714Z,7.44
2019-03-26T11:10:22.520Z,7.37
2019-03-26T11:11:22.532Z,7.37
2019-03-26T11:12:22.544Z,7.37
2019-03-26T11:13:22.513Z,7.44
2019-03-26T11:14:22.551Z,7.37
2019-03-26T11:15:22.601Z,7.44
2019-03-26T11:16:22.516Z,7.44
2019-03-26T11:17:22.667Z,7.44
2019-03-26T11:18:22.663Z,7.5
2019-03-26T11:19:22.544Z,7.56
2019-03-26T11:20:22.569Z,7.56
2019-03-26T11:21:22.578Z,7.56
2019-03-26T11:22:22.518Z,7.56
2019-03-26T11:23:22.505Z,7.56
2019-03-26T11:24:22.547Z,7.56
2019-03-26T11:25:22.523Z,7.56
2019-03-26T11:26:22.566Z,7.56
2019-03-26T11:27:22.617Z,7.56
2019-03-26T11:28:22.601Z,7.5
2019-03-26T11:29:22.527Z,7.5
2019-03-26T11:30:22.488Z,7.44
2019-03-26T11:31:22.564Z,7.5
2019-03-26T11:32:22.513Z,7.5
2019-03-26T11:33:22.516Z,7.5
2019-03-26T11:34:22.533Z,7.56
2019-03-26T11:35:22.613Z,7.56
2019-03-26T11:36:22.519Z,7.56
2019-03-26T11:37:22.499Z,7.5
2019-03-26T11:38:22.540Z,7.5
2019-03-26T11:39:34.659Z,7.5
2019-03-26T11:40:22.665Z,7.5
2019-03-26T11:41:22.598Z,7.5
2019-03-26T11:42:22.495Z,7.5
2019-03-26T11:43:22.593Z,7.5
2019-03-26T11:44:22.499Z,7.5
2019-03-26T11:45:22.507Z,7.56
2019-03-26T11:46:22.739Z,7.62
2019-03-26T11:47:22.488Z,7.62
2019-03-26T11:48:22.479Z,7.56
2019-03-26T11:49:22.741Z,7.62
2019-03-26T11:50:22.482Z,7.62
2019-03-26T11:51:22.509Z,7.69
2019-03-26T11:52:22.500Z,7.75
2019-03-26T11:53:22.512Z,7.81
2019-03-26T11:54:22.529Z,7.81
2019-03-26T11:55:22.548Z,7.81
2019-03-26T11:56:22.511Z,7.81
2019-03-26T11:57:22.449Z,7.87
2019-03-26T11:58:31.313Z,7.94
2019-03-26T11:59:22.483Z,8
2019-03-26T12:00:22.522Z,8
2019-03-26T12:01:22.554Z,8.06
2019-03-26T12:02:23.246Z,8.13
2019-03-26T12:03:22.542Z,8.19
2019-03-26T12:04:22.553Z,8.19
2019-03-26T12:05:22.525Z,8.13
2019-03-26T12:06:22.503Z,8.13
2019-03-26T12:07:22.578Z,8.25
2019-03-26T12:08:22.403Z,8.25
2019-03-26T12:09:22.482Z,8.38
2019-03-26T12:10:22.572Z,8.44
2019-03-26T12:11:22.486Z,8.38
2019-03-26T12:12:22.550Z,8.5
2019-03-26T12:13:22.502Z,8.56
2019-03-26T12:14:22.440Z,8.56
2019-03-26T12:15:22.508Z,8.56
2019-03-26T12:16:22.469Z,8.56
2019-03-26T12:17:22.449Z,8.56
2019-03-26T12:18:22.403Z,8.56
2019-03-26T12:19:22.444Z,8.56
2019-03-26T12:20:22.472Z,8.75
2019-03-26T12:21:22.450Z,8.81
2019-03-26T12:22:22.404Z,8.88
2019-03-26T12:23:22.442Z,8.81
2019-03-26T12:24:22.470Z,8.81
2019-03-26T12:25:22.595Z,8.81
2019-03-26T12:26:22.383Z,8.88
2019-03-26T12:27:22.443Z,8.94
2019-03-26T12:28:23.777Z,8.81
2019-03-26T12:29:22.433Z,8.81
2019-03-26T12:30:22.434Z,8.81
2019-03-26T12:31:22.699Z,8.69
2019-03-26T12:32:22.530Z,8.81
2019-03-26T12:33:22.405Z,8.88
2019-03-26T12:34:22.403Z,8.88
2019-03-26T12:35:22.525Z,8.88
2019-03-26T12:36:22.466Z,8.88
2019-03-26T12:37:22.574Z,8.88
2019-03-26T12:38:22.426Z,8.94
2019-03-26T12:39:22.432Z,9.06
2019-03-26T12:40:22.462Z,9.06
2019-03-26T12:41:22.419Z,9
2019-03-26T12:42:22.398Z,8.94
2019-03-26T12:43:22.444Z,8.88
2019-03-26T12:44:22.393Z,8.88
2019-03-26T12:45:22.393Z,8.88
2019-03-26T12:46:22.500Z,8.88
2019-03-26T12:47:22.379Z,8.88
2019-03-26T12:48:22.387Z,8.94
2019-03-26T12:49:22.445Z,8.94
2019-03-26T12:50:22.392Z,9
2019-03-26T12:51:22.458Z,8.94
2019-03-26T12:52:22.376Z,8.94
2019-03-26T12:53:22.442Z,9
2019-03-26T12:54:22.472Z,9
2019-03-26T12:55:22.352Z,9.06
2019-03-26T12:56:22.359Z,9.06
2019-03-26T12:57:22.398Z,9
2019-03-26T12:58:36.981Z,9
2019-03-26T12:59:22.411Z,8.94
2019-03-26T13:00:22.378Z,8.94
2019-03-26T13:01:22.416Z,9
2019-03-26T13:02:22.393Z,8.94
2019-03-26T13:03:22.435Z,9
2019-03-26T13:04:22.441Z,9
2019-03-26T13:05:23.564Z,8.94
2019-03-26T13:06:22.384Z,9
2019-03-26T13:07:22.440Z,8.94
2019-03-26T13:08:22.398Z,9
2019-03-26T13:09:22.373Z,9.13
2019-03-26T13:10:22.429Z,9.06
2019-03-26T13:11:22.357Z,9.25
2019-03-26T13:12:22.361Z,9.25
2019-03-26T13:13:22.575Z,9.25
2019-03-26T13:14:22.370Z,9.19
2019-03-26T13:15:22.419Z,9.13
2019-03-26T13:16:22.374Z,9.19
2019-03-26T13:17:22.434Z,9.31
2019-03-26T13:18:22.430Z,9.38
2019-03-26T13:19:22.354Z,9.5
2019-03-26T13:20:22.365Z,9.5
2019-03-26T13:21:22.327Z,9.5
2019-03-26T13:22:22.356Z,9.5
2019-03-26T13:23:22.425Z,9.56
2019-03-26T13:24:22.393Z,9.5
2019-03-26T13:25:22.456Z,9.44
2019-03-26T13:26:24.553Z,9.38
2019-03-26T13:27:22.333Z,9.44
2019-03-26T13:28:22.371Z,9.38